Weather observations for the past three days for
Smyrna, Smyrna Airport
Metric (Imperial)
Date Time (cdt) Wind (kph) Vis. (km) Weather Sky Cond. Temperature (ºC) Relative Humidity Wind Chill (°C) Heat Index (°C) Pressure Precipitation (cm)
Air Dwpt 6 hour altimeter (cm) sea level (mb) 1 hr 3 hr 6 hr
Max. Min.
05 15:56 SW 37 G 56 16.09 Fair and Breezy CLR 23.9 10 42% 25 75.74 1010.1
05 14:56 SW 31 G 54 16.09 Fair CLR 23.9 10 42% 25 75.77 1010.4
05 13:56 S 24 G 39 16.09 Fair CLR 22.2 11.1 50% 75.84 1011.6
05 12:56 S 15 G 30 16.09 A Few Clouds FEW110 21.1 11.7 21.7 14.4 55% 75.92 1012.5
05 11:56 S 17 16.09 A Few Clouds FEW035 FEW085 21.1 11.1 53% 76.02 1013.8
05 10:56 SW 19 G 30 16.09 Fair CLR 21.1 11.7 55% 76.07 1014.4
05 09:56 S 17 16.09 Fair CLR 20.6 11.7 57% 76.02 1013.9
05 08:56 S 11 16.09 Fair CLR 18.3 11.1 63% 76 1013.6
05 07:56 S 6 16.09 Fair CLR 16.1 10.6 70% 76 1013.3
05 06:56 S 9 16.09 Fair CLR 14.4 10 18.3 13.3 75% 76 1013.4
05 05:56 S 6 16.09 Fair CLR 13.3 9.4 77% 75.95 1012.7
05 04:56 Calm 16.09 Fair CLR 13.9 9.4 74% 75.9 1012.2
05 03:56 Calm 16.09 Fair CLR 13.9 9.4 74% 75.9 1012.2
05 02:56 S 7 16.09 Fair CLR 16.7 9.4 62% 75.87 1011.8
05 01:56 S 11 16.09 Fair CLR 17.2 9.4 60% 75.9 1012.2
05 00:56 S 11 16.09 Fair CLR 18.3 9.4 24.4 17.8 56% 75.92 1012.6
04 23:56 S 15 16.09 Fair CLR 18.3 9.4 56% 75.9 1012.4
04 22:56 S 9 16.09 Fair CLR 18.3 9.4 56% 75.9 1012.3
04 21:56 S 6 16.09 Fair CLR 18.9 9.4 54% 75.9 1012.1
04 20:56 S 11 16.09 Fair CLR 20.6 8.9 47% 75.87 1011.8
04 19:56 S 9 16.09 A Few Clouds FEW080 22.8 8.9 41% 75.84 1011.7
04 18:56 S 9 16.09 A Few Clouds FEW075 24.4 8.9 27.2 24.4 37% 25 75.84 1011.5
04 17:56 SW 22 G 41 16.09 A Few Clouds FEW075 26.1 8.9 34% 26 75.84 1011.4
04 16:56 SW 19 G 31 16.09 A Few Clouds FEW075 26.1 10 36% 26 75.84 1011.5
04 15:56 S 30 G 50 16.09 A Few Clouds FEW075 26.7 9.4 34% 26 75.84 1011.5
04 14:56 S 13 G 30 16.09 A Few Clouds FEW070 26.7 9.4 34% 26 75.9 1012.2
04 13:56 SW 22 G 37 16.09 Fair CLR 26.7 10.6 37% 26 75.97 1013.2
04 12:56 SW 19 16.09 A Few Clouds FEW065 25.6 11.7 25.6 11.7 42% 26 76 1013.6
04 11:56 S 15 16.09 Fair CLR 25 11.1 42% 26 76.05 1014.3
04 10:56 SW 15 G 28 16.09 Fair CLR 23.3 10.6 45% 76.12 1015.2
04 09:56 Vrbl 9 16.09 Fair CLR 21.1 10 49% 76.15 1015.7
04 08:56 S 11 16.09 Fair CLR 17.8 8.3 54% 76.17 1016.2
04 07:56 S 11 16.09 Fair CLR 14.4 7.8 65% 76.2 1016.5
04 06:56 S 7 16.09 Fair CLR 11.7 6.7 11.7 8.9 72% 76.17 1016.3
04 05:56 S 7 16.09 Fair CLR 10.6 6.1 74% 76.12 1015.6
04 04:56 SE 9 16.09 Fair CLR 10 5.6 74% 9 76.15 1015.6
04 03:56 S 11 16.09 Fair CLR 10.6 5.6 71% 76.15 1015.8
04 02:56 S 9 16.09 Fair CLR 10 5.6 74% 9 76.17 1016.1
04 01:56 SE 9 16.09 Fair CLR 9.4 5.6 77% 8 76.2 1016.6
04 00:56 S 6 16.09 Fair CLR 11.7 5 18.9 11.1 64% 76.25 1017.0
03 23:56 S 11 16.09 Fair CLR 11.7 5 64% 76.2 1016.6
03 22:56 S 7 16.09 Fair CLR 11.7 5 64% 76.28 1017.5
03 21:56 S 6 16.09 Fair CLR 12.8 5 59% 76.28 1017.7
03 20:56 S 6 16.09 Fair CLR 15.6 3.9 46% 76.25 1017.1
03 19:56 SW 7 16.09 Fair CLR 16.7 3.3 41% 76.25 1017.1
03 18:56 SW 9 16.09 Fair CLR 18.9 2.8 20.6 17.2 34% 76.25 1017.2
03 17:56 SW 9 16.09 Fair CLR 20 2.2 31% 76.28 1017.5
03 16:56 Vrbl 9 16.09 Fair CLR 20 1.7 30% 76.33 1018.3
03 15:56 W 15 16.09 Fair CLR 20 2.2 31% 76.4 1019.2
03 14:56 Vrbl 7 G 30 16.09 Fair CLR 19.4 2.2 32% 76.48 1020.3
03 13:56 SW 13 16.09 Fair CLR 18.3 1.1 32% 76.56 1021.1
03 12:56 Vrbl 11 16.09 Fair CLR 17.2 1.1 17.2 4.4 34% 76.58 1021.9
03 11:56 Vrbl 6 16.09 Fair CLR 15.6 1.7 39% 76.68 1023.0
03 10:56 Vrbl 7 16.09 Fair CLR 13.9 -0.6 37% 76.73 1023.7
03 09:56 Vrbl 6 16.09 Fair CLR 12.2 6.1 67% 76.73 1024.0
03 08:56 E 6 16.09 Fair CLR 10.6 7.8 83% 76.73 1023.9
03 07:56 Calm 9.66 Fog/Mist CLR 7.8 7.2 96% 76.73 1023.7
03 06:56 Calm 9.66 Fog/Mist CLR 4.4 4.4 7.2 3.3 100% 76.71 1023.4
03 05:56 SE 7 3.22 Fog/Mist CLR 3.9 3.9 100% 2 76.63 1022.5
03 04:56 Calm 1.61 Light Rain Fog/Mist CLR 4.4 4.4 100% 76.61 1022.3
03 03:56 Calm 2.01 Fog/Mist CLR 5 5 100% 76.61 1022.1
03 02:56 Calm 4.83 Fog/Mist CLR 5 5 100% 76.58 1021.8
03 01:56 Calm 16.09 Fair CLR 6.7 6.7 100% 76.58 1021.6
03 00:56 Calm 12.87 Fair CLR 6.1 6.1 12.2 6.1 100% 76.58 1021.7
02 23:56 Calm 11.27 Fair CLR 6.7 6.7 100% 76.56 1021.4
02 22:56 W 6 16.09 Fair CLR 7.2 7.2 100% 76.53 1021.2
02 21:56 NW 6 16.09 Fair CLR 7.8 6.1 89% 76.53 1021.0
02 20:56 N 9 16.09 Fair CLR 8.9 7.2 89% 8 76.5 1020.7
02 19:56 N 17 16.09 A Few Clouds FEW100 10.6 7.8 83% 76.43 1019.8
02 18:56 N 24 16.09 Mostly Cloudy SCT090 BKN120 12.2 8.9 18.9 11.7 80% 76.35 1018.7 0.05 0.13
Date Time (cdt) Wind (kph) Vis. (km) Weather Sky Cond. Air Dwpt Max. Min. Relative Humidity Wind Chill (°C) Heat Index (°C) altimeter (cm) sea level (mb) 1 hr 3 hr 6 hr
6 hour
Temperature (ºC) Pressure Precipitation (cm)